createdAt,value
2023-03-13T00:01:40.758Z,4.35
2023-03-13T00:04:07.935Z,5.32
2023-03-13T00:06:38.724Z,4.13
2023-03-13T00:09:09.961Z,4.43
2023-03-13T00:11:37.096Z,4.53
2023-03-13T00:14:06.738Z,4.93
2023-03-13T00:16:35.613Z,4.63
2023-03-13T00:19:03.177Z,4.20
2023-03-13T00:21:30.536Z,4.03
2023-03-13T00:24:00.318Z,4.20
2023-03-13T00:26:28.766Z,4.25
2023-03-13T00:28:56.113Z,4.22
2023-03-13T00:31:33.281Z,3.90
2023-03-13T00:34:02.594Z,3.55
2023-03-13T00:36:34.192Z,4.03
2023-03-13T00:39:04.228Z,4.30
2023-03-13T00:41:33.526Z,4.15
2023-03-13T00:44:00.722Z,3.60
2023-03-13T00:46:30.230Z,3.67
2023-03-13T00:48:57.668Z,3.97
2023-03-13T00:51:26.923Z,4.13
2023-03-13T00:54:01.507Z,3.85
2023-03-13T00:56:29.514Z,4.15
2023-03-13T00:58:56.556Z,4.15
2023-03-13T01:01:35.922Z,4.18
2023-03-13T01:04:08.457Z,4.55
2023-03-13T01:06:40.407Z,4.25
2023-03-13T01:09:07.845Z,4.18
2023-03-13T01:11:38.763Z,4.55
2023-03-13T01:14:19.477Z,4.38
2023-03-13T01:16:47.198Z,4.00
2023-03-13T01:19:16.866Z,4.70
2023-03-13T01:21:46.610Z,4.30
2023-03-13T01:24:13.560Z,4.40
2023-03-13T01:26:40.643Z,4.72
2023-03-13T01:29:07.526Z,4.15
2023-03-13T01:31:36.303Z,4.32
2023-03-13T01:34:07.968Z,5.15
2023-03-13T01:36:37.513Z,5.28
2023-03-13T01:39:05.360Z,4.70
2023-03-13T01:41:32.531Z,5.20
2023-03-13T01:43:59.626Z,4.68
2023-03-13T01:46:33.362Z,4.95
2023-03-13T01:49:23.664Z,4.63
2023-03-13T01:52:10.513Z,4.70
2023-03-13T01:55:07.455Z,5.30
2023-03-13T01:57:44.572Z,4.40
2023-03-13T02:00:19.944Z,4.93
2023-03-13T02:02:52.263Z,3.95
2023-03-13T02:05:22.722Z,4.82
2023-03-13T02:08:02.556Z,5.13
2023-03-13T02:10:32.098Z,4.43
2023-03-13T02:13:02.468Z,4.80
2023-03-13T02:15:31.167Z,4.95
2023-03-13T02:17:58.221Z,4.55
2023-03-13T02:20:25.401Z,5.10
2023-03-13T02:23:24.706Z,4.85
2023-03-13T02:25:53.729Z,4.55
2023-03-13T02:28:35.801Z,5.55
2023-03-13T02:31:07.006Z,6.45
2023-03-13T02:33:41.669Z,5.80
2023-03-13T02:36:14.594Z,5.85
2023-03-13T02:39:04.451Z,5.85
2023-03-13T02:41:34.294Z,6.35
2023-03-13T02:44:01.529Z,7.10
2023-03-13T02:46:28.541Z,6.43
2023-03-13T02:48:57.330Z,7.20
2023-03-13T02:51:41.732Z,6.93
2023-03-13T02:54:21.152Z,6.40
2023-03-13T02:56:53.953Z,6.85
2023-03-13T02:59:20.854Z,5.90
2023-03-13T03:01:52.572Z,6.72
2023-03-13T03:04:24.917Z,5.55
2023-03-13T03:06:55.206Z,6.60
2023-03-13T03:09:22.938Z,4.97
2023-03-13T03:11:53.646Z,5.18
2023-03-13T03:14:20.848Z,4.93
2023-03-13T03:16:48.444Z,4.55
2023-03-13T03:19:15.662Z,5.90
2023-03-13T03:21:42.831Z,5.20
2023-03-13T03:24:10.126Z,4.90
2023-03-13T03:26:37.310Z,4.68
2023-03-13T03:29:11.890Z,4.97
2023-03-13T03:31:40.106Z,4.55
2023-03-13T03:34:07.151Z,4.32
2023-03-13T03:36:34.543Z,4.78
2023-03-13T03:39:01.711Z,4.10
2023-03-13T03:41:29.980Z,4.32
2023-03-13T03:43:57.083Z,4.47
2023-03-13T03:46:28.359Z,3.40
2023-03-13T03:48:56.765Z,4.32
2023-03-13T03:51:24.401Z,3.70
2023-03-13T03:53:51.417Z,4.57
2023-03-13T03:56:18.283Z,3.50
2023-03-13T03:58:50.003Z,3.90
2023-03-13T04:01:28.428Z,3.45
2023-03-13T04:03:55.357Z,3.88
2023-03-13T04:06:22.205Z,4.13
2023-03-13T04:08:49.451Z,4.03
2023-03-13T04:11:20.146Z,3.70
2023-03-13T04:13:50.425Z,4.22
2023-03-13T04:16:17.695Z,3.63
2023-03-13T04:18:46.010Z,3.65
2023-03-13T04:21:13.028Z,4.28
2023-03-13T04:23:53.006Z,3.97
2023-03-13T04:26:20.618Z,4.78
2023-03-13T04:28:49.483Z,3.60
2023-03-13T04:31:20.350Z,4.55
2023-03-13T04:34:18.739Z,4.18
2023-03-13T04:36:54.362Z,4.43
2023-03-13T04:39:41.546Z,4.15
2023-03-13T04:42:24.286Z,4.45
2023-03-13T04:45:07.053Z,4.18
2023-03-13T04:47:39.813Z,4.88
2023-03-13T04:50:32.788Z,3.80
2023-03-13T04:53:12.052Z,4.78
2023-03-13T04:55:50.985Z,4.28
2023-03-13T04:58:50.186Z,4.82
2023-03-13T05:01:46.357Z,4.45
2023-03-13T05:04:30.983Z,4.60
2023-03-13T05:06:57.776Z,3.85
2023-03-13T05:09:58.044Z,3.25
2023-03-13T05:12:33.883Z,4.05
2023-03-13T05:15:30.018Z,3.45
2023-03-13T05:18:15.597Z,3.33
2023-03-13T05:20:50.080Z,2.83
2023-03-13T05:23:51.446Z,3.85
2023-03-13T05:26:31.478Z,2.95
2023-03-13T05:29:04.412Z,3.65
2023-03-13T05:31:47.015Z,3.70
2023-03-13T05:34:28.785Z,3.25
2023-03-13T05:36:58.481Z,3.40
2023-03-13T05:39:45.237Z,2.55
2023-03-13T05:42:35.093Z,3.20
2023-03-13T05:45:27.869Z,2.95
2023-03-13T05:48:03.613Z,2.95
2023-03-13T05:50:33.157Z,2.45
2023-03-13T05:53:18.990Z,2.90
2023-03-13T05:55:57.801Z,2.83
2023-03-13T05:58:43.245Z,2.90
2023-03-13T06:01:13.195Z,2.33
2023-03-13T06:03:43.058Z,3.35
2023-03-13T06:06:11.413Z,3.20
2023-03-13T06:08:44.288Z,3.00
2023-03-13T06:11:11.772Z,2.70
2023-03-13T06:13:38.738Z,2.63
2023-03-13T06:16:28.355Z,3.00
2023-03-13T06:19:11.890Z,2.80
2023-03-13T06:21:39.168Z,3.03
2023-03-13T06:24:06.733Z,3.30
2023-03-13T06:26:33.730Z,2.97
2023-03-13T06:29:00.545Z,3.30
2023-03-13T06:31:27.439Z,3.13
2023-03-13T06:33:55.499Z,2.80
2023-03-13T06:36:24.439Z,3.38
2023-03-13T06:38:51.888Z,3.33
2023-03-13T06:41:19.033Z,2.75
2023-03-13T06:43:46.031Z,3.10
2023-03-13T06:46:23.128Z,2.85
2023-03-13T06:48:50.846Z,2.75
2023-03-13T06:51:21.349Z,2.33
2023-03-13T06:53:49.348Z,2.55
2023-03-13T06:56:16.146Z,2.20
2023-03-13T06:58:42.961Z,2.40
2023-03-13T07:01:14.105Z,2.80
2023-03-13T07:03:41.574Z,2.40
2023-03-13T07:06:10.258Z,2.85
2023-03-13T07:08:38.022Z,2.75
2023-03-13T07:11:09.035Z,3.25
2023-03-13T07:13:36.898Z,3.20
2023-03-13T07:16:10.770Z,2.60
2023-03-13T07:18:38.468Z,2.72
2023-03-13T07:21:05.755Z,2.75
2023-03-13T07:23:35.409Z,3.55
2023-03-13T07:26:10.620Z,3.05
2023-03-13T07:28:38.094Z,2.80
2023-03-13T07:31:14.597Z,3.20
2023-03-13T07:33:42.473Z,3.08
2023-03-13T07:36:10.306Z,2.80
2023-03-13T07:38:37.530Z,3.00
2023-03-13T07:41:05.312Z,3.10
2023-03-13T07:43:32.884Z,2.80
2023-03-13T07:46:03.990Z,3.55
2023-03-13T07:48:34.672Z,3.45
2023-03-13T07:51:02.303Z,3.25
2023-03-13T07:53:29.955Z,3.10
2023-03-13T07:56:01.947Z,3.35
2023-03-13T07:58:35.338Z,3.78
2023-03-13T08:01:18.797Z,3.03
2023-03-13T08:03:49.042Z,2.88
2023-03-13T08:06:23.342Z,2.47
2023-03-13T08:08:51.383Z,2.25
2023-03-13T08:11:26.680Z,3.17
2023-03-13T08:13:55.074Z,2.25
2023-03-13T08:16:32.265Z,2.58
2023-03-13T08:19:00.968Z,2.70
2023-03-13T08:21:31.441Z,2.58
2023-03-13T08:24:01.838Z,2.72
2023-03-13T08:26:30.837Z,2.53
2023-03-13T08:29:05.291Z,2.72
2023-03-13T08:31:45.219Z,2.80
2023-03-13T08:34:13.890Z,3.10
2023-03-13T08:36:41.796Z,2.72
2023-03-13T08:39:15.546Z,2.45
2023-03-13T08:41:43.101Z,2.75
2023-03-13T08:44:16.874Z,2.25
2023-03-13T08:46:44.673Z,2.72
2023-03-13T08:49:13.233Z,2.45
2023-03-13T08:51:40.791Z,2.40
2023-03-13T08:54:07.889Z,2.88
2023-03-13T08:56:35.104Z,2.50
2023-03-13T08:59:04.419Z,2.47
2023-03-13T09:01:34.507Z,2.30
2023-03-13T09:04:04.474Z,2.60
2023-03-13T09:06:36.862Z,1.95
2023-03-13T09:09:06.592Z,2.65
2023-03-13T09:11:34.034Z,2.10
2023-03-13T09:14:00.893Z,2.28
2023-03-13T09:16:31.264Z,2.70
2023-03-13T09:18:59.706Z,1.85
2023-03-13T09:21:35.325Z,2.00
2023-03-13T09:24:03.041Z,1.58
2023-03-13T09:26:30.766Z,2.13
2023-03-13T09:28:57.870Z,2.42
2023-03-13T09:31:28.343Z,2.55
2023-03-13T09:33:55.548Z,1.85
2023-03-13T09:36:23.932Z,1.60
2023-03-13T09:38:57.120Z,1.65
2023-03-13T09:41:26.919Z,1.85
2023-03-13T09:44:00.261Z,2.42
2023-03-13T09:46:53.831Z,2.20
2023-03-13T09:49:35.160Z,1.50
2023-03-13T09:52:40.767Z,1.55
2023-03-13T09:55:21.852Z,1.77
2023-03-13T09:58:04.291Z,1.75
2023-03-13T10:00:48.012Z,1.20
2023-03-13T10:03:27.540Z,1.33
2023-03-13T10:06:12.019Z,1.83
2023-03-13T10:08:38.766Z,1.15
2023-03-13T10:11:37.208Z,1.48
2023-03-13T10:14:41.747Z,1.10
2023-03-13T10:17:38.789Z,1.10
2023-03-13T10:20:28.217Z,0.90
2023-03-13T10:23:05.268Z,1.08
2023-03-13T10:25:38.500Z,1.20
2023-03-13T10:28:11.664Z,1.02
2023-03-13T10:30:47.172Z,1.02
2023-03-13T10:33:34.627Z,1.40
2023-03-13T10:36:12.168Z,1.15
2023-03-13T10:38:54.538Z,1.10
2023-03-13T10:41:36.167Z,1.42
2023-03-13T10:44:15.867Z,1.30
2023-03-13T10:46:46.879Z,1.20
2023-03-13T10:49:20.574Z,1.42
2023-03-13T10:51:51.881Z,1.50
2023-03-13T10:54:23.492Z,1.20
2023-03-13T10:57:29.811Z,1.10
2023-03-13T10:59:58.014Z,1.50
2023-03-13T11:02:39.578Z,1.10
2023-03-13T11:05:31.601Z,1.00
2023-03-13T11:07:58.557Z,1.17
2023-03-13T11:10:32.503Z,1.30
2023-03-13T11:12:59.721Z,1.40
2023-03-13T11:15:49.171Z,1.20
2023-03-13T11:18:32.944Z,1.00
2023-03-13T11:21:17.273Z,1.23
2023-03-13T11:24:01.802Z,1.80
2023-03-13T11:26:31.493Z,1.20
2023-03-13T11:29:28.678Z,1.23
2023-03-13T11:32:07.690Z,1.10
2023-03-13T11:34:42.595Z,1.05
2023-03-13T11:37:14.517Z,1.40
2023-03-13T11:39:50.254Z,1.55
2023-03-13T11:42:55.789Z,1.30
2023-03-13T11:45:58.123Z,1.63
2023-03-13T11:48:49.272Z,1.02
2023-03-13T11:52:07.222Z,1.08
2023-03-13T11:55:17.761Z,1.13
2023-03-13T11:58:16.463Z,1.67
2023-03-13T12:00:59.792Z,1.15
2023-03-13T12:03:55.597Z,1.33
2023-03-13T12:06:49.317Z,1.23
2023-03-13T12:09:34.653Z,1.10
2023-03-13T12:12:12.087Z,1.60
2023-03-13T12:14:52.480Z,1.30
2023-03-13T12:17:40.740Z,1.45
2023-03-13T12:20:27.287Z,1.55
2023-03-13T12:23:17.060Z,1.73
2023-03-13T12:25:53.000Z,1.33
2023-03-13T12:28:36.277Z,1.40
2023-03-13T12:31:21.839Z,2.05
2023-03-13T12:33:58.345Z,1.50
2023-03-13T12:37:01.073Z,1.65
2023-03-13T12:39:50.072Z,1.50
2023-03-13T12:42:47.204Z,1.83
2023-03-13T12:45:21.625Z,1.20
2023-03-13T12:48:17.640Z,2.10
2023-03-13T12:51:09.414Z,1.90
2023-03-13T12:54:09.028Z,1.77
2023-03-13T12:57:08.713Z,1.70
2023-03-13T12:59:41.800Z,1.85
2023-03-13T13:02:38.470Z,1.67
2023-03-13T13:05:06.415Z,2.00
2023-03-13T13:07:40.820Z,2.00
2023-03-13T13:10:10.675Z,2.03
2023-03-13T13:12:43.390Z,1.88
2023-03-13T13:15:25.888Z,1.92
2023-03-13T13:18:15.236Z,2.20
2023-03-13T13:21:02.294Z,1.83
2023-03-13T13:23:38.335Z,2.15
2023-03-13T13:26:27.077Z,1.60
2023-03-13T13:28:56.192Z,1.92
2023-03-13T13:31:57.045Z,2.30
2023-03-13T13:34:34.324Z,2.65
2023-03-13T13:37:22.967Z,2.42
2023-03-13T13:39:55.042Z,2.10
2023-03-13T13:42:30.556Z,2.72
2023-03-13T13:45:28.340Z,2.15
2023-03-13T13:48:43.152Z,2.95
2023-03-13T13:51:11.100Z,3.00
2023-03-13T13:53:50.797Z,2.70
2023-03-13T13:56:37.312Z,2.55
2023-03-13T13:59:44.141Z,2.55
2023-03-13T14:02:44.358Z,3.63
2023-03-13T14:05:40.163Z,2.85
2023-03-13T14:08:21.786Z,2.83
2023-03-13T14:11:23.863Z,2.67
2023-03-13T14:14:20.342Z,2.95
2023-03-13T14:16:54.158Z,2.58
2023-03-13T14:19:36.524Z,2.50
2023-03-13T14:22:14.383Z,2.50
2023-03-13T14:24:41.471Z,2.80
2023-03-13T14:27:20.444Z,2.40
2023-03-13T14:30:06.833Z,2.65
2023-03-13T14:32:34.032Z,2.83
2023-03-13T14:35:01.478Z,3.70
2023-03-13T14:38:02.390Z,2.65
2023-03-13T14:40:32.969Z,2.72
2023-03-13T14:43:03.799Z,2.33
2023-03-13T14:45:33.433Z,2.92
2023-03-13T14:48:20.933Z,2.92
2023-03-13T14:50:50.403Z,2.40
2023-03-13T14:53:23.017Z,3.45
2023-03-13T14:56:14.569Z,3.63
2023-03-13T14:58:41.942Z,3.58
2023-03-13T15:01:25.277Z,2.67
2023-03-13T15:03:52.591Z,2.80
2023-03-13T15:06:22.736Z,2.63
2023-03-13T15:09:18.826Z,2.67
2023-03-13T15:12:00.717Z,2.53
2023-03-13T15:14:46.671Z,2.80
2023-03-13T15:17:27.888Z,3.15
2023-03-13T15:19:57.931Z,3.35
2023-03-13T15:22:29.478Z,3.17
2023-03-13T15:25:06.065Z,3.15
2023-03-13T15:27:34.376Z,2.95
2023-03-13T15:30:01.170Z,2.85
2023-03-13T15:32:39.028Z,3.03
2023-03-13T15:35:23.875Z,3.05
2023-03-13T15:37:50.900Z,2.83
2023-03-13T15:40:18.650Z,2.92
2023-03-13T15:42:45.833Z,3.30
2023-03-13T15:45:12.673Z,2.58
2023-03-13T15:47:39.486Z,2.92
2023-03-13T15:50:19.699Z,3.30
2023-03-13T15:52:46.741Z,2.45
2023-03-13T15:55:13.977Z,2.65
2023-03-13T15:57:48.749Z,2.75
2023-03-13T16:00:23.823Z,3.10
2023-03-13T16:02:50.798Z,3.08
2023-03-13T16:05:18.296Z,3.72
2023-03-13T16:07:45.205Z,3.08
2023-03-13T16:10:25.455Z,3.08
2023-03-13T16:12:53.663Z,3.17
2023-03-13T16:15:21.697Z,3.10
2023-03-13T16:17:48.474Z,3.35
2023-03-13T16:20:20.793Z,3.10
2023-03-13T16:22:50.250Z,3.67
2023-03-13T16:25:18.427Z,2.88
2023-03-13T16:27:45.266Z,4.68
2023-03-13T16:30:23.021Z,3.40
2023-03-13T16:32:50.657Z,3.83
2023-03-13T16:35:17.724Z,3.83
2023-03-13T16:37:45.192Z,3.80
2023-03-13T16:40:24.800Z,3.10
2023-03-13T16:42:52.019Z,3.88
2023-03-13T16:45:18.953Z,3.50
2023-03-13T16:47:46.562Z,3.78
2023-03-13T16:50:31.375Z,3.65
2023-03-13T16:52:58.295Z,3.10
2023-03-13T16:55:28.130Z,4.63
2023-03-13T16:57:58.947Z,4.00
2023-03-13T17:00:30.330Z,5.50
2023-03-13T17:02:59.021Z,6.00
2023-03-13T17:05:27.470Z,4.25
2023-03-13T17:07:54.616Z,4.97
2023-03-13T17:10:25.625Z,4.40
2023-03-13T17:12:53.092Z,4.07
2023-03-13T17:15:20.590Z,3.92
2023-03-13T17:17:52.260Z,4.38
2023-03-13T17:20:24.177Z,3.55
2023-03-13T17:22:51.393Z,4.55
2023-03-13T17:25:18.456Z,4.43
2023-03-13T17:27:47.407Z,4.25
2023-03-13T17:30:20.073Z,4.68
2023-03-13T17:32:49.606Z,5.20
2023-03-13T17:35:17.675Z,4.05
2023-03-13T17:37:44.886Z,4.18
2023-03-13T17:40:29.123Z,4.07
2023-03-13T17:42:56.963Z,4.32
2023-03-13T17:45:25.199Z,4.28
2023-03-13T17:47:53.699Z,3.67
2023-03-13T17:50:27.111Z,3.90
2023-03-13T17:52:55.166Z,3.97
2023-03-13T17:55:22.766Z,3.97
2023-03-13T17:57:49.668Z,3.67
2023-03-13T18:00:28.978Z,3.90
2023-03-13T18:02:56.201Z,4.10
2023-03-13T18:05:23.146Z,4.43
2023-03-13T18:07:51.013Z,4.50
2023-03-13T18:10:29.858Z,4.82
2023-03-13T18:12:57.381Z,4.95
2023-03-13T18:15:26.572Z,4.28
2023-03-13T18:17:53.900Z,3.92
2023-03-13T18:20:27.675Z,5.70
2023-03-13T18:22:59.257Z,4.80
2023-03-13T18:25:30.083Z,4.43
2023-03-13T18:27:57.714Z,4.32
2023-03-13T18:30:26.058Z,4.18
2023-03-13T18:32:52.966Z,4.50
2023-03-13T18:35:19.990Z,4.22
2023-03-13T18:37:48.086Z,6.20
2023-03-13T18:40:19.798Z,4.80
2023-03-13T18:42:46.857Z,5.13
2023-03-13T18:45:20.153Z,4.68
2023-03-13T18:47:48.244Z,3.78
2023-03-13T18:50:26.756Z,4.25
2023-03-13T18:52:56.721Z,4.10
2023-03-13T18:55:29.997Z,4.32
2023-03-13T18:57:57.615Z,4.57
2023-03-13T19:00:29.291Z,4.15
2023-03-13T19:02:56.289Z,4.63
2023-03-13T19:05:24.090Z,3.92
2023-03-13T19:07:50.912Z,3.63
2023-03-13T19:10:29.054Z,4.82
2023-03-13T19:12:57.005Z,3.88
2023-03-13T19:15:28.631Z,4.38
2023-03-13T19:17:56.099Z,5.70
2023-03-13T19:20:24.295Z,4.68
2023-03-13T19:22:51.196Z,4.80
2023-03-13T19:25:18.482Z,4.55
2023-03-13T19:27:45.764Z,3.95
2023-03-13T19:30:21.413Z,4.53
2023-03-13T19:32:48.672Z,4.63
2023-03-13T19:35:20.980Z,4.68
2023-03-13T19:37:48.473Z,4.90
2023-03-13T19:40:28.660Z,4.35
2023-03-13T19:42:55.424Z,4.93
2023-03-13T19:45:22.455Z,4.50
2023-03-13T19:47:49.736Z,4.45
2023-03-13T19:50:29.680Z,4.28
2023-03-13T19:52:56.515Z,3.60
2023-03-13T19:55:23.350Z,3.95
2023-03-13T19:57:50.556Z,4.28
2023-03-13T20:00:27.402Z,4.32
2023-03-13T20:02:57.069Z,5.97
2023-03-13T20:05:27.260Z,5.20
2023-03-13T20:07:54.344Z,4.65
2023-03-13T20:10:22.456Z,4.85
2023-03-13T20:12:49.506Z,4.75
2023-03-13T20:15:16.843Z,4.53
2023-03-13T20:17:43.712Z,4.25
2023-03-13T20:20:11.323Z,4.95
2023-03-13T20:22:38.123Z,4.57
2023-03-13T20:25:05.326Z,4.40
2023-03-13T20:27:32.521Z,4.70
2023-03-13T20:29:59.948Z,4.65
2023-03-13T20:32:27.834Z,4.10
2023-03-13T20:34:54.780Z,3.80
2023-03-13T20:37:21.751Z,4.45
2023-03-13T20:39:48.508Z,5.00
2023-03-13T20:42:16.439Z,4.88
2023-03-13T20:44:43.394Z,3.60
2023-03-13T20:47:10.178Z,4.43
2023-03-13T20:49:37.989Z,4.50
2023-03-13T20:52:04.987Z,4.20
2023-03-13T20:54:31.795Z,4.18
2023-03-13T20:56:58.605Z,4.25
2023-03-13T20:59:25.707Z,4.20
2023-03-13T21:01:52.530Z,4.28
2023-03-13T21:04:19.358Z,3.95
2023-03-13T21:06:46.262Z,4.35
2023-03-13T21:09:13.544Z,4.50
2023-03-13T21:11:40.527Z,3.95
2023-03-13T21:14:07.422Z,3.85
2023-03-13T21:16:34.236Z,4.32
2023-03-13T21:19:01.321Z,3.95
2023-03-13T21:21:29.153Z,3.78
2023-03-13T21:23:55.933Z,3.63
2023-03-13T21:26:23.056Z,3.83
2023-03-13T21:28:51.017Z,4.78
2023-03-13T21:31:19.466Z,3.88
2023-03-13T21:33:48.094Z,3.65
2023-03-13T21:36:20.432Z,4.53
2023-03-13T21:38:49.780Z,4.18
2023-03-13T21:41:21.144Z,3.70
2023-03-13T21:43:48.818Z,3.95
2023-03-13T21:46:18.277Z,3.83
2023-03-13T21:51:18.188Z,3.40
2023-03-13T21:53:44.937Z,3.78
2023-03-13T21:56:16.614Z,3.90
2023-03-13T21:58:48.184Z,3.83
2023-03-13T22:01:15.871Z,3.90
2023-03-13T22:03:42.934Z,4.63
2023-03-13T22:06:15.907Z,3.88
2023-03-13T22:08:43.444Z,3.10
2023-03-13T22:11:11.141Z,3.60
2023-03-13T22:13:38.367Z,3.05
2023-03-13T22:16:05.858Z,4.05
2023-03-13T22:18:32.673Z,3.47
2023-03-13T22:21:00.439Z,3.30
2023-03-13T22:23:27.327Z,3.95
2023-03-13T22:25:59.128Z,3.80
2023-03-13T22:28:26.837Z,3.70
2023-03-13T22:30:53.716Z,4.00
2023-03-13T22:33:20.616Z,3.45
2023-03-13T22:35:52.306Z,3.72
2023-03-13T22:38:20.716Z,3.55
2023-03-13T22:40:56.008Z,3.33
2023-03-13T22:43:22.784Z,3.63
2023-03-13T22:45:49.611Z,4.03
2023-03-13T22:48:17.697Z,4.93
2023-03-13T22:50:44.502Z,4.30
2023-03-13T22:53:11.596Z,4.28
2023-03-13T22:55:38.344Z,4.03
2023-03-13T22:58:05.521Z,3.97
2023-03-13T23:00:32.781Z,4.38
2023-03-13T23:02:59.564Z,3.78
2023-03-13T23:05:26.411Z,4.07
2023-03-13T23:07:53.170Z,4.72
2023-03-13T23:10:20.053Z,4.30
2023-03-13T23:12:46.866Z,5.15
2023-03-13T23:15:14.606Z,4.68
2023-03-13T23:17:41.481Z,4.85
2023-03-13T23:20:13.169Z,4.32
2023-03-13T23:22:42.780Z,4.20
2023-03-13T23:25:11.966Z,4.45
2023-03-13T23:27:39.973Z,3.35
2023-03-13T23:30:12.008Z,3.90
2023-03-13T23:32:42.841Z,4.68
2023-03-13T23:35:11.026Z,4.07
2023-03-13T23:37:38.225Z,4.18
2023-03-13T23:40:08.789Z,4.20
2023-03-13T23:42:35.973Z,3.70
2023-03-13T23:45:05.161Z,3.65
2023-03-13T23:47:33.248Z,3.83
2023-03-13T23:50:00.341Z,3.45
2023-03-13T23:52:27.345Z,4.82
2023-03-13T23:54:54.199Z,5.03
2023-03-13T23:57:21.042Z,4.57
2023-03-13T23:59:49.067Z,3.95
